Terminal Aerodrome Forecast
Issued by NWS Tuscon, AZ

Home | Current Version | Previous Version | Text Only | Print | Product List | Glossary On
Versions: 1 2 3 4 5 6 7 8 9 10 11 12 13 14 15 16 17 18 19 20 21 22 23 24 25 26 27 28
000
FTUS45 KTWC 210104 AAA
TAFDUG
TAF AMD
KDUG 210104Z 2101/2124 18008KT P6SM SCT100 OVC200
     FM211200 12006KT P6SM SCT200
     FM211700 19010KT P6SM FEW080 BKN200
     FM212100 24014G23KT P6SM FEW090 BKN200=

USA.gov is the U.S. government's official web portal to all federal, state and local government web resources and services.